sensor_id;sensor_type;location;lat;lon;timestamp;pressure;altitude;pressure_sealevel;temperature;humidity
68986;BME280;56035;37.534;-122.308;2022-09-03T00:02:31;100859.47;;;23.62;49.59
68986;BME280;56035;37.534;-122.308;2022-09-03T00:05:18;100861.66;;;23.73;48.84
68986;BME280;56035;37.534;-122.308;2022-09-03T00:08:22;100856.38;;;23.72;48.98
68986;BME280;56035;37.534;-122.308;2022-09-03T00:13:34;100868.09;;;23.74;49.33
68986;BME280;56035;37.534;-122.308;2022-09-03T00:16:05;100865.44;;;23.69;49.49
68986;BME280;56035;37.534;-122.308;2022-09-03T00:18:40;100876.00;;;23.63;50.00
68986;BME280;56035;37.534;-122.308;2022-09-03T00:21:23;100874.66;;;23.60;49.54
68986;BME280;56035;37.534;-122.308;2022-09-03T00:23:52;100879.63;;;23.64;49.30
68986;BME280;56035;37.534;-122.308;2022-09-03T00:26:26;100877.97;;;23.63;49.15
68986;BME280;56035;37.534;-122.308;2022-09-03T00:29:01;100873.66;;;23.56;48.39
68986;BME280;56035;37.534;-122.308;2022-09-03T00:31:55;100886.38;;;23.54;48.18
68986;BME280;56035;37.534;-122.308;2022-09-03T00:34:37;100890.19;;;23.49;47.90
68986;BME280;56035;37.534;-122.308;2022-09-03T00:37:06;100887.34;;;23.41;48.20
68986;BME280;56035;37.534;-122.308;2022-09-03T00:39:35;100890.78;;;23.37;48.31
68986;BME280;56035;37.534;-122.308;2022-09-03T00:48:50;100899.75;;;23.08;49.19
68986;BME280;56035;37.534;-122.308;2022-09-03T00:51:31;100893.13;;;22.96;49.17
68986;BME280;56035;37.534;-122.308;2022-09-03T00:54:09;100893.03;;;22.87;49.91
68986;BME280;56035;37.534;-122.308;2022-09-03T00:56:54;100895.94;;;22.73;50.12
68986;BME280;56035;37.534;-122.308;2022-09-03T01:02:23;100894.47;;;22.53;50.80
68986;BME280;56035;37.534;-122.308;2022-09-03T01:05:09;100892.75;;;22.43;50.57
68986;BME280;56035;37.534;-122.308;2022-09-03T01:07:45;100892.16;;;22.33;51.17
68986;BME280;56035;37.534;-122.308;2022-09-03T01:10:26;100898.66;;;22.19;51.12
68986;BME280;56035;37.534;-122.308;2022-09-03T01:26:46;100897.41;;;21.62;51.35
68986;BME280;56035;37.534;-122.308;2022-09-03T01:34:33;100903.84;;;21.35;52.36
68986;BME280;56035;37.534;-122.308;2022-09-03T01:40:05;100913.88;;;21.08;53.21
68986;BME280;56035;37.534;-122.308;2022-09-03T01:43:15;100913.84;;;20.94;53.70
68986;BME280;56035;37.534;-122.308;2022-09-03T01:51:15;100912.72;;;20.63;54.88
68986;BME280;56035;37.534;-122.308;2022-09-03T01:56:55;100905.09;;;20.30;56.52
68986;BME280;56035;37.534;-122.308;2022-09-03T01:59:43;100893.63;;;20.13;57.26
68986;BME280;56035;37.534;-122.308;2022-09-03T02:02:21;100903.09;;;19.98;57.73
68986;BME280;56035;37.534;-122.308;2022-09-03T02:05:08;100911.59;;;19.88;57.93
68986;BME280;56035;37.534;-122.308;2022-09-03T02:10:06;100924.22;;;19.67;58.53
68986;BME280;56035;37.534;-122.308;2022-09-03T02:13:10;100919.00;;;19.55;59.41
68986;BME280;56035;37.534;-122.308;2022-09-03T02:15:41;100917.47;;;19.44;59.88
68986;BME280;56035;37.534;-122.308;2022-09-03T02:18:14;100919.38;;;19.24;60.82
68986;BME280;56035;37.534;-122.308;2022-09-03T02:20:41;100927.88;;;19.14;60.92
68986;BME280;56035;37.534;-122.308;2022-09-03T02:23:08;100926.28;;;19.03;61.31
68986;BME280;56035;37.534;-122.308;2022-09-03T02:25:40;100933.13;;;18.91;62.42
68986;BME280;56035;37.534;-122.308;2022-09-03T02:28:09;100926.50;;;18.82;62.51
68986;BME280;56035;37.534;-122.308;2022-09-03T02:30:35;100935.25;;;18.70;63.17
68986;BME280;56035;37.534;-122.308;2022-09-03T02:33:01;100925.06;;;18.51;63.52
68986;BME280;56035;37.534;-122.308;2022-09-03T02:35:27;100926.81;;;18.41;64.44
68986;BME280;56035;37.534;-122.308;2022-09-03T02:37:53;100933.88;;;18.29;64.66
68986;BME280;56035;37.534;-122.308;2022-09-03T02:40:20;100925.88;;;18.17;65.49
68986;BME280;56035;37.534;-122.308;2022-09-03T02:42:46;100916.75;;;18.06;65.88
68986;BME280;56035;37.534;-122.308;2022-09-03T02:45:15;100920.38;;;18.01;66.10
68986;BME280;56035;37.534;-122.308;2022-09-03T02:47:49;100922.41;;;17.91;66.38
68986;BME280;56035;37.534;-122.308;2022-09-03T02:50:17;100917.16;;;17.84;66.56
68986;BME280;56035;37.534;-122.308;2022-09-03T02:52:43;100914.69;;;17.77;66.33
68986;BME280;56035;37.534;-122.308;2022-09-03T02:55:09;100912.75;;;17.68;67.02
68986;BME280;56035;37.534;-122.308;2022-09-03T02:57:36;100921.41;;;17.61;67.64
68986;BME280;56035;37.534;-122.308;2022-09-03T03:00:03;100928.94;;;17.55;67.37
68986;BME280;56035;37.534;-122.308;2022-09-03T03:02:30;100924.81;;;17.48;67.68
68986;BME280;56035;37.534;-122.308;2022-09-03T03:04:56;100929.03;;;17.40;67.46
68986;BME280;56035;37.534;-122.308;2022-09-03T03:07:22;100939.34;;;17.35;68.15
68986;BME280;56035;37.534;-122.308;2022-09-03T03:09:48;100946.59;;;17.30;68.23
68986;BME280;56035;37.534;-122.308;2022-09-03T03:12:14;100937.72;;;17.23;68.18
68986;BME280;56035;37.534;-122.308;2022-09-03T03:14:42;100946.34;;;17.17;68.13
68986;BME280;56035;37.534;-122.308;2022-09-03T03:17:08;100955.84;;;17.11;68.92
68986;BME280;56035;37.534;-122.308;2022-09-03T03:19:34;100963.91;;;17.07;68.99
68986;BME280;56035;37.534;-122.308;2022-09-03T03:22:00;100960.28;;;17.01;69.02
68986;BME280;56035;37.534;-122.308;2022-09-03T03:24:27;100960.28;;;16.96;69.59
68986;BME280;56035;37.534;-122.308;2022-09-03T03:26:56;100970.31;;;16.92;70.00
68986;BME280;56035;37.534;-122.308;2022-09-03T03:29:23;100968.09;;;16.84;69.97
68986;BME280;56035;37.534;-122.308;2022-09-03T03:31:50;100968.09;;;16.79;70.36
68986;BME280;56035;37.534;-122.308;2022-09-03T03:34:17;100979.78;;;16.76;70.35
68986;BME280;56035;37.534;-122.308;2022-09-03T03:36:43;100978.06;;;16.70;70.68
68986;BME280;56035;37.534;-122.308;2022-09-03T03:39:09;100983.66;;;16.65;70.95
68986;BME280;56035;37.534;-122.308;2022-09-03T03:41:35;100987.25;;;16.60;71.06
68986;BME280;56035;37.534;-122.308;2022-09-03T03:44:05;100989.19;;;16.54;71.36
68986;BME280;56035;37.534;-122.308;2022-09-03T03:46:37;100987.25;;;16.50;71.74
68986;BME280;56035;37.534;-122.308;2022-09-03T03:49:03;100988.09;;;16.45;71.75
68986;BME280;56035;37.534;-122.308;2022-09-03T03:51:32;100995.28;;;16.41;71.29
68986;BME280;56035;37.534;-122.308;2022-09-03T03:53:58;100991.69;;;16.35;71.76
68986;BME280;56035;37.534;-122.308;2022-09-03T03:56:25;101002.53;;;16.32;72.21
68986;BME280;56035;37.534;-122.308;2022-09-03T03:58:53;101019.16;;;16.27;71.76
68986;BME280;56035;37.534;-122.308;2022-09-03T04:01:24;101014.72;;;16.26;72.00
68986;BME280;56035;37.534;-122.308;2022-09-03T04:03:54;101019.16;;;16.22;71.79
68986;BME280;56035;37.534;-122.308;2022-09-03T04:06:20;101022.22;;;16.20;71.66
68986;BME280;56035;37.534;-122.308;2022-09-03T04:08:47;101037.22;;;16.19;71.82
68986;BME280;56035;37.534;-122.308;2022-09-03T04:11:16;101046.41;;;16.20;72.19
68986;BME280;56035;37.534;-122.308;2022-09-03T04:13:44;101050.84;;;16.21;72.27
68986;BME280;56035;37.534;-122.308;2022-09-03T04:16:14;101063.31;;;16.18;72.50
68986;BME280;56035;37.534;-122.308;2022-09-03T04:18:40;101071.38;;;16.14;73.26
68986;BME280;56035;37.534;-122.308;2022-09-03T04:21:18;101075.00;;;16.10;73.96
68986;BME280;56035;37.534;-122.308;2022-09-03T04:23:48;101083.81;;;16.02;74.64
68986;BME280;56035;37.534;-122.308;2022-09-03T04:26:17;101089.09;;;15.93;74.84
68986;BME280;56035;37.534;-122.308;2022-09-03T04:28:44;101092.09;;;15.86;75.42
68986;BME280;56035;37.534;-122.308;2022-09-03T04:31:12;101090.66;;;15.79;75.77
68986;BME280;56035;37.534;-122.308;2022-09-03T04:33:39;101084.50;;;15.72;76.23
68986;BME280;56035;37.534;-122.308;2022-09-03T04:38:32;101097.69;;;15.54;76.94
68986;BME280;56035;37.534;-122.308;2022-09-03T04:40:59;101087.66;;;15.48;77.62
68986;BME280;56035;37.534;-122.308;2022-09-03T04:43:28;101098.41;;;15.39;78.27
68986;BME280;56035;37.534;-122.308;2022-09-03T04:45:58;101092.56;;;15.36;78.65
68986;BME280;56035;37.534;-122.308;2022-09-03T04:48:26;101091.16;;;15.33;78.53
68986;BME280;56035;37.534;-122.308;2022-09-03T04:50:53;101096.41;;;15.30;78.73
68986;BME280;56035;37.534;-122.308;2022-09-03T04:53:21;101093.63;;;15.30;78.27
68986;BME280;56035;37.534;-122.308;2022-09-03T04:55:47;101098.03;;;15.26;78.27
68986;BME280;56035;37.534;-122.308;2022-09-03T04:58:13;101102.16;;;15.23;78.68
68986;BME280;56035;37.534;-122.308;2022-09-03T05:00:39;101099.09;;;15.19;79.00
68986;BME280;56035;37.534;-122.308;2022-09-03T05:03:05;101103.22;;;15.17;78.91
68986;BME280;56035;37.534;-122.308;2022-09-03T05:05:32;101105.69;;;15.13;78.77
68986;BME280;56035;37.534;-122.308;2022-09-03T05:07:59;101105.38;;;15.10;78.99
68986;BME280;56035;37.534;-122.308;2022-09-03T05:10:29;101107.03;;;15.06;78.69
68986;BME280;56035;37.534;-122.308;2022-09-03T05:13:00;101110.91;;;15.05;79.33
68986;BME280;56035;37.534;-122.308;2022-09-03T05:15:28;101106.19;;;15.05;78.85
68986;BME280;56035;37.534;-122.308;2022-09-03T05:17:58;101107.56;;;15.03;78.62
68986;BME280;56035;37.534;-122.308;2022-09-03T05:20:26;101116.16;;;15.01;79.19
68986;BME280;56035;37.534;-122.308;2022-09-03T05:23:01;101110.25;;;14.97;79.06
68986;BME280;56035;37.534;-122.308;2022-09-03T05:25:28;101103.88;;;14.97;79.42
68986;BME280;56035;37.534;-122.308;2022-09-03T05:27:57;101103.31;;;14.95;79.53
68986;BME280;56035;37.534;-122.308;2022-09-03T05:30:23;101093.59;;;14.92;79.44
68986;BME280;56035;37.534;-122.308;2022-09-03T05:32:51;101100.50;;;14.90;79.44
68986;BME280;56035;37.534;-122.308;2022-09-03T05:35:17;101110.47;;;14.91;79.25
68986;BME280;56035;37.534;-122.308;2022-09-03T05:37:44;101103.25;;;14.90;79.18
68986;BME280;56035;37.534;-122.308;2022-09-03T05:40:10;101100.19;;;14.86;79.33
68986;BME280;56035;37.534;-122.308;2022-09-03T05:42:39;101096.56;;;14.86;79.37
68986;BME280;56035;37.534;-122.308;2022-09-03T05:45:09;101097.69;;;14.85;79.73
68986;BME280;56035;37.534;-122.308;2022-09-03T05:47:37;101093.22;;;14.84;79.97
68986;BME280;56035;37.534;-122.308;2022-09-03T05:50:05;101080.19;;;14.84;79.13
68986;BME280;56035;37.534;-122.308;2022-09-03T05:52:33;101087.34;;;14.80;79.26
68986;BME280;56035;37.534;-122.308;2022-09-03T05:55:01;101078.50;;;14.78;79.88
68986;BME280;56035;37.534;-122.308;2022-09-03T05:57:27;101071.53;;;14.75;80.12
68986;BME280;56035;37.534;-122.308;2022-09-03T05:59:55;101079.84;;;14.75;79.88
68986;BME280;56035;37.534;-122.308;2022-09-03T06:02:22;101083.16;;;14.78;79.20
68986;BME280;56035;37.534;-122.308;2022-09-03T06:04:48;101086.53;;;14.80;78.34
68986;BME280;56035;37.534;-122.308;2022-09-03T06:07:15;101081.81;;;14.80;77.78
68986;BME280;56035;37.534;-122.308;2022-09-03T06:09:41;101076.56;;;14.84;77.18
68986;BME280;56035;37.534;-122.308;2022-09-03T06:12:07;101075.81;;;14.88;76.81
68986;BME280;56035;37.534;-122.308;2022-09-03T06:14:34;101074.09;;;14.82;77.02
68986;BME280;56035;37.534;-122.308;2022-09-03T06:17:00;101083.16;;;14.78;77.21
68986;BME280;56035;37.534;-122.308;2022-09-03T06:19:26;101084.56;;;14.75;77.86
68986;BME280;56035;37.534;-122.308;2022-09-03T06:21:52;101089.22;;;14.74;77.48
68986;BME280;56035;37.534;-122.308;2022-09-03T06:24:19;101077.31;;;14.74;77.27
68986;BME280;56035;37.534;-122.308;2022-09-03T06:26:51;101078.78;;;14.82;77.81
68986;BME280;56035;37.534;-122.308;2022-09-03T06:29:17;101085.41;;;14.81;77.02
68986;BME280;56035;37.534;-122.308;2022-09-03T06:31:44;101088.94;;;14.98;75.94
68986;BME280;56035;37.534;-122.308;2022-09-03T06:34:13;101095.72;;;15.12;74.89
68986;BME280;56035;37.534;-122.308;2022-09-03T06:36:39;101098.41;;;15.02;74.74
68986;BME280;56035;37.534;-122.308;2022-09-03T06:39:08;101093.06;;;14.95;75.18
68986;BME280;56035;37.534;-122.308;2022-09-03T06:41:34;101100.88;;;14.98;73.99
68986;BME280;56035;37.534;-122.308;2022-09-03T06:44:05;101106.63;;;14.92;73.69
68986;BME280;56035;37.534;-122.308;2022-09-03T06:46:37;101108.78;;;14.85;73.76
68986;BME280;56035;37.534;-122.308;2022-09-03T06:49:10;101119.28;;;14.83;74.73
68986;BME280;56035;37.534;-122.308;2022-09-03T06:51:37;101119.66;;;14.91;74.90
68986;BME280;56035;37.534;-122.308;2022-09-03T06:54:05;101127.13;;;14.91;75.28
68986;BME280;56035;37.534;-122.308;2022-09-03T06:56:33;101135.72;;;14.89;76.55
68986;BME280;56035;37.534;-122.308;2022-09-03T06:59:04;101137.56;;;14.79;76.60
68986;BME280;56035;37.534;-122.308;2022-09-03T07:01:31;101151.63;;;14.72;76.82
68986;BME280;56035;37.534;-122.308;2022-09-03T07:04:00;101150.13;;;14.64;76.30
68986;BME280;56035;37.534;-122.308;2022-09-03T07:06:29;101143.97;;;14.57;77.44
68986;BME280;56035;37.534;-122.308;2022-09-03T07:08:56;101152.72;;;14.49;76.76
68986;BME280;56035;37.534;-122.308;2022-09-03T07:11:26;101149.81;;;14.39;77.78
68986;BME280;56035;37.534;-122.308;2022-09-03T07:13:54;101136.41;;;14.31;78.86
68986;BME280;56035;37.534;-122.308;2022-09-03T07:16:26;101143.56;;;14.26;78.30
68986;BME280;56035;37.534;-122.308;2022-09-03T07:18:52;101138.47;;;14.18;79.23
68986;BME280;56035;37.534;-122.308;2022-09-03T07:21:24;101144.28;;;14.17;79.56
68986;BME280;56035;37.534;-122.308;2022-09-03T07:23:51;101152.81;;;14.15;79.06
68986;BME280;56035;37.534;-122.308;2022-09-03T07:26:20;101146.44;;;14.15;78.59
68986;BME280;56035;37.534;-122.308;2022-09-03T07:28:48;101151.16;;;14.14;79.00
68986;BME280;56035;37.534;-122.308;2022-09-03T07:31:16;101145.34;;;14.16;79.02
68986;BME280;56035;37.534;-122.308;2022-09-03T07:33:45;101142.25;;;14.12;79.29
68986;BME280;56035;37.534;-122.308;2022-09-03T07:36:16;101145.03;;;14.12;79.26
68986;BME280;56035;37.534;-122.308;2022-09-03T07:38:43;101154.44;;;14.11;79.27
68986;BME280;56035;37.534;-122.308;2022-09-03T07:41:11;101153.28;;;14.07;79.33
68986;BME280;56035;37.534;-122.308;2022-09-03T07:43:40;101150.19;;;14.03;79.67
68986;BME280;56035;37.534;-122.308;2022-09-03T07:46:11;101146.06;;;14.06;80.14
68986;BME280;56035;37.534;-122.308;2022-09-03T07:48:41;101157.41;;;14.04;79.85
68986;BME280;56035;37.534;-122.308;2022-09-03T07:51:08;101149.59;;;14.01;79.55
68986;BME280;56035;37.534;-122.308;2022-09-03T07:53:34;101155.41;;;14.00;79.89
68986;BME280;56035;37.534;-122.308;2022-09-03T07:56:10;101152.63;;;14.00;80.20
68986;BME280;56035;37.534;-122.308;2022-09-03T07:58:37;101151.94;;;14.10;80.08
68986;BME280;56035;37.534;-122.308;2022-09-03T08:01:13;101148.31;;;14.09;79.86
68986;BME280;56035;37.534;-122.308;2022-09-03T08:03:44;101141.19;;;14.13;79.62
68986;BME280;56035;37.534;-122.308;2022-09-03T08:06:11;101145.88;;;14.13;79.62
68986;BME280;56035;37.534;-122.308;2022-09-03T08:08:37;101143.13;;;14.13;79.11
68986;BME280;56035;37.534;-122.308;2022-09-03T08:11:09;101142.75;;;14.09;79.61
68986;BME280;56035;37.534;-122.308;2022-09-03T08:13:43;101144.69;;;14.09;78.97
68986;BME280;56035;37.534;-122.308;2022-09-03T08:16:11;101136.56;;;14.02;78.45
68986;BME280;56035;37.534;-122.308;2022-09-03T08:18:38;101139.84;;;13.99;79.10
68986;BME280;56035;37.534;-122.308;2022-09-03T08:21:08;101144.84;;;13.97;78.99
68986;BME280;56035;37.534;-122.308;2022-09-03T08:23:40;101157.25;;;13.94;78.33
68986;BME280;56035;37.534;-122.308;2022-09-03T08:26:07;101145.25;;;13.89;79.01
68986;BME280;56035;37.534;-122.308;2022-09-03T08:28:34;101139.81;;;13.94;78.52
68986;BME280;56035;37.534;-122.308;2022-09-03T08:31:27;101143.59;;;13.88;78.09
68986;BME280;56035;37.534;-122.308;2022-09-03T08:33:55;101144.69;;;13.87;78.71
68986;BME280;56035;37.534;-122.308;2022-09-03T08:36:27;101143.00;;;13.86;78.09
68986;BME280;56035;37.534;-122.308;2022-09-03T08:39:01;101140.22;;;13.86;78.16
68986;BME280;56035;37.534;-122.308;2022-09-03T08:47:05;101146.53;;;13.81;78.57
68986;BME280;56035;37.534;-122.308;2022-09-03T08:49:44;101143.81;;;13.86;79.04
68986;BME280;56035;37.534;-122.308;2022-09-03T08:58:11;101141.84;;;13.81;79.20
68986;BME280;56035;37.534;-122.308;2022-09-03T09:01:03;101143.16;;;13.79;79.38
68986;BME280;56035;37.534;-122.308;2022-09-03T09:06:59;101150.41;;;13.63;79.93
68986;BME280;56035;37.534;-122.308;2022-09-03T09:21:23;101144.38;;;13.32;80.47
68986;BME280;56035;37.534;-122.308;2022-09-03T09:23:53;101139.84;;;13.26;79.87
68986;BME280;56035;37.534;-122.308;2022-09-03T09:26:22;101152.03;;;13.25;80.13
68986;BME280;56035;37.534;-122.308;2022-09-03T09:29:00;101144.19;;;13.22;80.23
68986;BME280;56035;37.534;-122.308;2022-09-03T09:31:27;101145.50;;;13.20;81.99
68986;BME280;56035;37.534;-122.308;2022-09-03T09:34:02;101138.56;;;13.17;81.13
68986;BME280;56035;37.534;-122.308;2022-09-03T09:36:29;101141.75;;;13.09;81.44
68986;BME280;56035;37.534;-122.308;2022-09-03T09:39:10;101143.91;;;13.07;81.33
68986;BME280;56035;37.534;-122.308;2022-09-03T09:41:36;101152.97;;;13.02;81.25
68986;BME280;56035;37.534;-122.308;2022-09-03T09:44:03;101142.91;;;12.96;82.05
68986;BME280;56035;37.534;-122.308;2022-09-03T09:46:36;101141.72;;;12.92;82.72
68986;BME280;56035;37.534;-122.308;2022-09-03T09:49:28;101139.09;;;12.85;82.69
68986;BME280;56035;37.534;-122.308;2022-09-03T09:52:15;101152.34;;;12.83;82.57
68986;BME280;56035;37.534;-122.308;2022-09-03T09:54:43;101171.09;;;12.81;82.22
68986;BME280;56035;37.534;-122.308;2022-09-03T09:57:23;101166.56;;;12.75;82.79
68986;BME280;56035;37.534;-122.308;2022-09-03T10:00:03;101153.25;;;12.72;83.67
68986;BME280;56035;37.534;-122.308;2022-09-03T10:02:34;101146.50;;;12.68;83.39
68986;BME280;56035;37.534;-122.308;2022-09-03T10:05:18;101162.75;;;12.64;83.14
68986;BME280;56035;37.534;-122.308;2022-09-03T10:07:54;101162.66;;;12.59;83.03
68986;BME280;56035;37.534;-122.308;2022-09-03T10:10:22;101153.16;;;12.55;83.35
68986;BME280;56035;37.534;-122.308;2022-09-03T10:13:08;101148.72;;;12.54;83.47
68986;BME280;56035;37.534;-122.308;2022-09-03T10:21:53;101140.84;;;12.46;83.81
68986;BME280;56035;37.534;-122.308;2022-09-03T10:24:24;101146.25;;;12.41;84.07
68986;BME280;56035;37.534;-122.308;2022-09-03T10:26:54;101142.53;;;12.35;84.02
68986;BME280;56035;37.534;-122.308;2022-09-03T10:29:22;101125.38;;;12.33;85.25
68986;BME280;56035;37.534;-122.308;2022-09-03T10:32:25;101126.44;;;12.32;85.16
68986;BME280;56035;37.534;-122.308;2022-09-03T10:35:26;101122.75;;;12.27;85.23
68986;BME280;56035;37.534;-122.308;2022-09-03T10:51:26;101130.56;;;12.18;84.81
68986;BME280;56035;37.534;-122.308;2022-09-03T10:57:14;101141.28;;;12.14;85.60
68986;BME280;56035;37.534;-122.308;2022-09-03T11:05:07;101135.06;;;12.07;86.08
68986;BME280;56035;37.534;-122.308;2022-09-03T11:07:38;101147.16;;;12.06;86.22
68986;BME280;56035;37.534;-122.308;2022-09-03T11:10:32;101147.06;;;12.01;85.07
68986;BME280;56035;37.534;-122.308;2022-09-03T11:15:58;101148.03;;;11.95;86.39
68986;BME280;56035;37.534;-122.308;2022-09-03T11:19:05;101152.34;;;11.91;86.12
68986;BME280;56035;37.534;-122.308;2022-09-03T11:21:35;101145.63;;;11.87;85.83
68986;BME280;56035;37.534;-122.308;2022-09-03T11:24:23;101148.00;;;11.83;85.59
68986;BME280;56035;37.534;-122.308;2022-09-03T11:27:44;101143.81;;;11.81;85.44
68986;BME280;56035;37.534;-122.308;2022-09-03T11:29:54;101159.50;;;11.80;85.83
68986;BME280;56035;37.534;-122.308;2022-09-03T11:35:00;101155.22;;;11.72;86.33
68986;BME280;56035;37.534;-122.308;2022-09-03T11:37:28;101161.81;;;11.71;86.26
68986;BME280;56035;37.534;-122.308;2022-09-03T11:40:10;101152.34;;;11.67;85.37
68986;BME280;56035;37.534;-122.308;2022-09-03T11:42:40;101152.81;;;11.64;85.46
68986;BME280;56035;37.534;-122.308;2022-09-03T11:47:52;101153.53;;;11.60;87.34
68986;BME280;56035;37.534;-122.308;2022-09-03T11:53:09;101134.09;;;11.55;86.71
68986;BME280;56035;37.534;-122.308;2022-09-03T11:58:33;101138.41;;;11.51;86.68
68986;BME280;56035;37.534;-122.308;2022-09-03T12:01:07;101137.19;;;11.46;86.78
68986;BME280;56035;37.534;-122.308;2022-09-03T12:03:57;101134.09;;;11.43;86.87
68986;BME280;56035;37.534;-122.308;2022-09-03T12:06:56;101143.44;;;11.42;87.56
68986;BME280;56035;37.534;-122.308;2022-09-03T12:09:33;101143.66;;;11.40;88.27
68986;BME280;56035;37.534;-122.308;2022-09-03T12:15:08;101143.66;;;11.40;88.32
68986;BME280;56035;37.534;-122.308;2022-09-03T12:17:52;101143.44;;;11.42;90.10
68986;BME280;56035;37.534;-122.308;2022-09-03T12:20:40;101134.19;;;11.36;89.14
68986;BME280;56035;37.534;-122.308;2022-09-03T12:23:47;101145.47;;;11.35;88.60
68986;BME280;56035;37.534;-122.308;2022-09-03T12:26:19;101137.91;;;11.30;88.59
68986;BME280;56035;37.534;-122.308;2022-09-03T12:28:51;101145.59;;;11.28;89.26
68986;BME280;56035;37.534;-122.308;2022-09-03T12:31:21;101143.91;;;11.27;89.81
68986;BME280;56035;37.534;-122.308;2022-09-03T12:34:06;101139.47;;;11.26;90.15
68986;BME280;56035;37.534;-122.308;2022-09-03T12:36:59;101147.13;;;11.24;89.85
68986;BME280;56035;37.534;-122.308;2022-09-03T12:39:26;101156.47;;;11.23;89.87
68986;BME280;56035;37.534;-122.308;2022-09-03T12:42:06;101152.28;;;11.20;89.13
68986;BME280;56035;37.534;-122.308;2022-09-03T12:44:37;101144.84;;;11.21;89.51
68986;BME280;56035;37.534;-122.308;2022-09-03T12:47:12;101144.38;;;11.24;89.94
68986;BME280;56035;37.534;-122.308;2022-09-03T12:49:44;101152.75;;;11.17;89.75
68986;BME280;56035;37.534;-122.308;2022-09-03T12:54:57;101149.78;;;11.19;90.64
68986;BME280;56035;37.534;-122.308;2022-09-03T12:57:32;101156.13;;;11.19;91.21
68986;BME280;56035;37.534;-122.308;2022-09-03T13:00:20;101151.06;;;11.16;90.91
68986;BME280;56035;37.534;-122.308;2022-09-03T13:03:06;101155.97;;;11.14;90.36
68986;BME280;56035;37.534;-122.308;2022-09-03T13:05:43;101163.66;;;11.12;91.16
68986;BME280;56035;37.534;-122.308;2022-09-03T13:08:31;101158.97;;;11.13;91.37
68986;BME280;56035;37.534;-122.308;2022-09-03T13:11:00;101162.56;;;11.13;91.19
68986;BME280;56035;37.534;-122.308;2022-09-03T13:13:31;101163.28;;;11.09;91.00
68986;BME280;56035;37.534;-122.308;2022-09-03T13:27:22;101156.69;;;11.10;93.45
68986;BME280;56035;37.534;-122.308;2022-09-03T13:30:04;101140.63;;;11.07;93.56
68986;BME280;56035;37.534;-122.308;2022-09-03T13:32:48;101157.88;;;11.02;92.75
68986;BME280;56035;37.534;-122.308;2022-09-03T13:38:34;101159.19;;;10.99;92.28
68986;BME280;56035;37.534;-122.308;2022-09-03T13:43:54;101171.06;;;11.00;92.36
68986;BME280;56035;37.534;-122.308;2022-09-03T13:49:29;101189.63;;;11.05;93.07
68986;BME280;56035;37.534;-122.308;2022-09-03T13:58:22;101198.53;;;11.07;93.50
68986;BME280;56035;37.534;-122.308;2022-09-03T14:03:35;101205.50;;;11.09;93.47
68986;BME280;56035;37.534;-122.308;2022-09-03T14:11:34;101204.09;;;11.18;93.14
68986;BME280;56035;37.534;-122.308;2022-09-03T14:22:55;101209.41;;;11.43;94.03
68986;BME280;56035;37.534;-122.308;2022-09-03T14:25:25;101200.31;;;11.55;94.48
68986;BME280;56035;37.534;-122.308;2022-09-03T14:27:53;101198.03;;;11.63;94.12
68986;BME280;56035;37.534;-122.308;2022-09-03T14:36:41;101214.28;;;12.18;93.95
68986;BME280;56035;37.534;-122.308;2022-09-03T14:39:22;101208.00;;;12.35;93.04
68986;BME280;56035;37.534;-122.308;2022-09-03T14:53:35;101213.25;;;13.46;88.92
68986;BME280;56035;37.534;-122.308;2022-09-03T14:57:02;101210.47;;;13.79;87.25
68986;BME280;56035;37.534;-122.308;2022-09-03T15:01:49;101213.22;;;14.13;85.18
68986;BME280;56035;37.534;-122.308;2022-09-03T15:04:31;101217.41;;;14.38;83.72
68986;BME280;56035;37.534;-122.308;2022-09-03T15:12:54;101223.03;;;15.09;81.94
68986;BME280;56035;37.534;-122.308;2022-09-03T15:15:53;101224.06;;;15.57;78.61
68986;BME280;56035;37.534;-122.308;2022-09-03T15:27:19;101239.28;;;17.60;71.54
68986;BME280;56035;37.534;-122.308;2022-09-03T15:30:09;101226.50;;;17.89;71.22
68986;BME280;56035;37.534;-122.308;2022-09-03T15:35:15;101228.59;;;18.48;67.37
68986;BME280;56035;37.534;-122.308;2022-09-03T15:37:46;101234.66;;;18.71;66.82
68986;BME280;56035;37.534;-122.308;2022-09-03T15:40:24;101233.78;;;18.86;66.33
68986;BME280;56035;37.534;-122.308;2022-09-03T15:43:03;101231.63;;;19.22;65.51
68986;BME280;56035;37.534;-122.308;2022-09-03T15:51:14;101228.13;;;19.85;62.49
68986;BME280;56035;37.534;-122.308;2022-09-03T15:53:50;101230.19;;;20.03;61.37
68986;BME280;56035;37.534;-122.308;2022-09-03T15:57:00;101229.38;;;20.27;61.83
68986;BME280;56035;37.534;-122.308;2022-09-03T15:59:40;101233.00;;;20.56;60.87
68986;BME280;56035;37.534;-122.308;2022-09-03T16:05:10;101225.13;;;21.25;57.92
68986;BME280;56035;37.534;-122.308;2022-09-03T16:07:51;101225.56;;;21.51;56.81
68986;BME280;56035;37.534;-122.308;2022-09-03T16:10:21;101224.63;;;21.75;56.24
68986;BME280;56035;37.534;-122.308;2022-09-03T16:16:04;101218.13;;;22.26;54.46
68986;BME280;56035;37.534;-122.308;2022-09-03T16:21:06;101223.56;;;22.64;53.51
68986;BME280;56035;37.534;-122.308;2022-09-03T16:23:58;101216.91;;;22.74;52.91
68986;BME280;56035;37.534;-122.308;2022-09-03T16:29:05;101215.25;;;23.36;50.44
68986;BME280;56035;37.534;-122.308;2022-09-03T16:50:13;101220.72;;;28.21;40.22